sensor_id;sensor_type;location;lat;lon;timestamp;pressure;altitude;pressure_sealevel;temperature;humidity
30856;BME280;17570;0.000;0.000;2022-08-19T00:29:55;96627.23;;;26.47;44.68
30856;BME280;17570;0.000;0.000;2022-08-19T00:32:22;96617.72;;;27.78;41.88
30856;BME280;17570;0.000;0.000;2022-08-19T00:34:51;96607.42;;;29.27;38.69
30856;BME280;17570;0.000;0.000;2022-08-19T00:37:21;96608.30;;;30.08;37.47
30856;BME280;17570;0.000;0.000;2022-08-19T00:39:49;96613.13;;;30.43;36.10
30856;BME280;17570;0.000;0.000;2022-08-19T00:42:18;96608.41;;;30.56;35.15
30856;BME280;17570;0.000;0.000;2022-08-19T00:44:46;96613.23;;;30.59;35.41
30856;BME280;17570;0.000;0.000;2022-08-19T00:47:13;96607.66;;;30.65;35.13
30856;BME280;17570;0.000;0.000;2022-08-19T00:49:45;96610.84;;;30.62;35.95
30856;BME280;17570;0.000;0.000;2022-08-19T00:52:16;96605.48;;;30.62;35.62
30856;BME280;17570;0.000;0.000;2022-08-19T00:54:43;96616.14;;;30.52;35.88
30856;BME280;17570;0.000;0.000;2022-08-19T00:57:15;96615.08;;;30.53;34.99
30856;BME280;17570;0.000;0.000;2022-08-19T00:59:43;96610.79;;;30.52;35.15
30856;BME280;17570;0.000;0.000;2022-08-19T01:02:12;96607.81;;;30.48;35.25
30856;BME280;17570;0.000;0.000;2022-08-19T01:04:39;96607.27;;;30.46;35.52
30856;BME280;17570;0.000;0.000;2022-08-19T01:07:07;96607.81;;;30.48;35.41
30856;BME280;17570;0.000;0.000;2022-08-19T01:09:35;96614.20;;;30.42;35.75
30856;BME280;17570;0.000;0.000;2022-08-19T01:12:02;96615.01;;;30.43;35.69
30856;BME280;17570;0.000;0.000;2022-08-19T01:14:30;96619.59;;;30.47;35.56
30856;BME280;17570;0.000;0.000;2022-08-19T01:16:58;96620.25;;;30.65;36.65
30856;BME280;17570;0.000;0.000;2022-08-19T01:19:27;96620.28;;;30.70;36.60
30856;BME280;17570;0.000;0.000;2022-08-19T01:21:57;96616.56;;;30.71;36.68
30856;BME280;17570;0.000;0.000;2022-08-19T01:24:24;96619.98;;;30.66;35.75
30856;BME280;17570;0.000;0.000;2022-08-19T01:26:52;96624.25;;;30.62;36.07
30856;BME280;17570;0.000;0.000;2022-08-19T01:29:19;96630.14;;;30.59;35.91
30856;BME280;17570;0.000;0.000;2022-08-19T01:31:47;96626.89;;;30.57;35.83
30856;BME280;17570;0.000;0.000;2022-08-19T01:34:16;96628.23;;;30.55;35.79
30856;BME280;17570;0.000;0.000;2022-08-19T01:36:44;96625.76;;;30.48;35.56
30856;BME280;17570;0.000;0.000;2022-08-19T01:39:15;96632.19;;;30.47;36.01
30856;BME280;17570;0.000;0.000;2022-08-19T01:41:42;96628.67;;;30.41;35.62
30856;BME280;17570;0.000;0.000;2022-08-19T01:44:10;96629.98;;;30.39;35.76
30856;BME280;17570;0.000;0.000;2022-08-19T01:46:38;96626.45;;;30.33;35.53
30856;BME280;17570;0.000;0.000;2022-08-19T01:49:06;96627.26;;;30.34;35.80
30856;BME280;17570;0.000;0.000;2022-08-19T01:51:34;96635.03;;;30.35;35.55
30856;BME280;17570;0.000;0.000;2022-08-19T01:54:02;96638.47;;;30.31;35.35
30856;BME280;17570;0.000;0.000;2022-08-19T01:56:30;96635.52;;;30.27;35.68
30856;BME280;17570;0.000;0.000;2022-08-19T01:59:00;96639.00;;;30.28;35.69
30856;BME280;17570;0.000;0.000;2022-08-19T02:01:26;96639.50;;;30.24;35.72
30856;BME280;17570;0.000;0.000;2022-08-19T02:03:55;96632.23;;;30.20;35.81
30856;BME280;17570;0.000;0.000;2022-08-19T02:06:23;96629.86;;;30.23;35.81
30856;BME280;17570;0.000;0.000;2022-08-19T02:08:50;96627.19;;;30.23;35.80
30856;BME280;17570;0.000;0.000;2022-08-19T02:11:24;96626.34;;;30.18;36.25
30856;BME280;17570;0.000;0.000;2022-08-19T02:13:47;96633.57;;;30.17;35.47
30856;BME280;17570;0.000;0.000;2022-08-19T02:16:16;96641.22;;;30.09;35.67
30856;BME280;17570;0.000;0.000;2022-08-19T02:18:44;96635.56;;;30.05;36.02
30856;BME280;17570;0.000;0.000;2022-08-19T02:21:14;96634.76;;;30.05;35.93
30856;BME280;17570;0.000;0.000;2022-08-19T02:23:42;96642.17;;;29.97;36.06
30856;BME280;17570;0.000;0.000;2022-08-19T02:26:10;96641.67;;;30.01;35.84
30856;BME280;17570;0.000;0.000;2022-08-19T02:28:39;96636.33;;;30.01;36.00
30856;BME280;17570;0.000;0.000;2022-08-19T02:31:09;96642.44;;;29.96;36.15
30856;BME280;17570;0.000;0.000;2022-08-19T02:33:37;96641.63;;;29.95;36.05
30856;BME280;17570;0.000;0.000;2022-08-19T02:36:05;96652.60;;;29.94;35.98
30856;BME280;17570;0.000;0.000;2022-08-19T02:38:34;96648.55;;;29.91;35.99
30856;BME280;17570;0.000;0.000;2022-08-19T02:41:04;96646.13;;;29.90;36.22
30856;BME280;17570;0.000;0.000;2022-08-19T02:43:33;96645.25;;;29.84;36.90
30856;BME280;17570;0.000;0.000;2022-08-19T02:46:15;96647.87;;;29.79;36.07
30856;BME280;17570;0.000;0.000;2022-08-19T02:48:40;96647.08;;;29.79;36.24
30856;BME280;17570;0.000;0.000;2022-08-19T02:51:07;96649.65;;;29.68;36.51
30856;BME280;17570;0.000;0.000;2022-08-19T02:53:35;96653.13;;;29.69;36.56
30856;BME280;17570;0.000;0.000;2022-08-19T02:56:07;96656.88;;;29.68;36.61
30856;BME280;17570;0.000;0.000;2022-08-19T03:00:42;96665.27;;;29.77;36.86
30856;BME280;17570;0.000;0.000;2022-08-19T03:03:10;96662.17;;;29.63;37.03
30856;BME280;17570;0.000;0.000;2022-08-19T03:05:38;96664.04;;;29.62;36.44
30856;BME280;17570;0.000;0.000;2022-08-19T03:08:06;96668.58;;;29.62;36.78
30856;BME280;17570;0.000;0.000;2022-08-19T03:10:39;96663.90;;;29.52;36.72
30856;BME280;17570;0.000;0.000;2022-08-19T03:13:04;96671.09;;;29.52;37.12
30856;BME280;17570;0.000;0.000;2022-08-19T03:15:31;96662.41;;;29.39;36.69
30856;BME280;17570;0.000;0.000;2022-08-19T03:17:59;96659.15;;;29.37;37.12
30856;BME280;17570;0.000;0.000;2022-08-19T03:20:26;96658.92;;;29.39;37.13
30856;BME280;17570;0.000;0.000;2022-08-19T03:22:54;96663.15;;;29.35;37.09
30856;BME280;17570;0.000;0.000;2022-08-19T03:25:21;96666.89;;;29.34;36.68
30856;BME280;17570;0.000;0.000;2022-08-19T03:27:49;96679.19;;;29.35;37.26
30856;BME280;17570;0.000;0.000;2022-08-19T03:30:16;96673.78;;;29.30;37.10
30856;BME280;17570;0.000;0.000;2022-08-19T03:32:44;96675.88;;;29.28;37.61
30856;BME280;17570;0.000;0.000;2022-08-19T03:35:11;96669.50;;;29.29;37.77
30856;BME280;17570;0.000;0.000;2022-08-19T03:37:39;96672.17;;;29.29;37.83
30856;BME280;17570;0.000;0.000;2022-08-19T03:40:07;96677.42;;;29.23;37.62
30856;BME280;17570;0.000;0.000;2022-08-19T03:42:35;96679.55;;;29.21;37.58
30856;BME280;17570;0.000;0.000;2022-08-19T03:45:02;96672.34;;;29.22;37.48
30856;BME280;17570;0.000;0.000;2022-08-19T03:47:30;96673.14;;;29.22;37.18
30856;BME280;17570;0.000;0.000;2022-08-19T03:49:57;96678.17;;;29.19;36.98
30856;BME280;17570;0.000;0.000;2022-08-19T03:52:25;96681.67;;;29.19;37.25
30856;BME280;17570;0.000;0.000;2022-08-19T03:54:52;96681.16;;;29.22;37.23
30856;BME280;17570;0.000;0.000;2022-08-19T03:57:20;96681.91;;;29.18;37.71
30856;BME280;17570;0.000;0.000;2022-08-19T03:59:47;96687.51;;;29.16;37.67
30856;BME280;17570;0.000;0.000;2022-08-19T04:02:15;96684.90;;;29.21;37.90
30856;BME280;17570;0.000;0.000;2022-08-19T04:04:43;96686.84;;;29.48;39.98
30856;BME280;17570;0.000;0.000;2022-08-19T04:07:12;96691.02;;;29.61;39.84
30856;BME280;17570;0.000;0.000;2022-08-19T04:09:41;96692.89;;;29.60;39.45
30856;BME280;17570;0.000;0.000;2022-08-19T04:12:09;96697.38;;;29.55;38.91
30856;BME280;17570;0.000;0.000;2022-08-19T04:14:36;96696.54;;;29.54;39.02
30856;BME280;17570;0.000;0.000;2022-08-19T04:17:04;96696.16;;;29.45;38.60
30856;BME280;17570;0.000;0.000;2022-08-19T04:19:32;96693.48;;;29.45;38.13
30856;BME280;17570;0.000;0.000;2022-08-19T04:22:00;96689.14;;;29.39;37.85
30856;BME280;17570;0.000;0.000;2022-08-19T04:24:28;96685.02;;;29.32;37.78
30856;BME280;17570;0.000;0.000;2022-08-19T04:26:55;96693.30;;;29.30;37.75
30856;BME280;17570;0.000;0.000;2022-08-19T04:29:24;96698.39;;;29.32;37.86
30856;BME280;17570;0.000;0.000;2022-08-19T04:31:54;96693.79;;;29.27;38.12
30856;BME280;17570;0.000;0.000;2022-08-19T04:34:22;96699.88;;;29.22;38.27
30856;BME280;17570;0.000;0.000;2022-08-19T04:36:51;96703.20;;;29.30;38.32
30856;BME280;17570;0.000;0.000;2022-08-19T04:39:21;96699.45;;;29.31;38.30
30856;BME280;17570;0.000;0.000;2022-08-19T04:41:49;96705.35;;;29.33;38.64
30856;BME280;17570;0.000;0.000;2022-08-19T04:44:35;96705.12;;;29.34;38.48
30856;BME280;17570;0.000;0.000;2022-08-19T04:47:03;96704.90;;;29.19;38.77
30856;BME280;17570;0.000;0.000;2022-08-19T04:49:33;96711.44;;;29.28;38.85
30856;BME280;17570;0.000;0.000;2022-08-19T04:52:01;96705.80;;;29.25;39.07
30856;BME280;17570;0.000;0.000;2022-08-19T04:54:28;96701.88;;;29.32;38.99
30856;BME280;17570;0.000;0.000;2022-08-19T04:56:56;96703.00;;;29.36;38.68
30856;BME280;17570;0.000;0.000;2022-08-19T04:59:24;96700.70;;;29.45;38.57
30856;BME280;17570;0.000;0.000;2022-08-19T05:01:57;96694.35;;;29.51;38.99
30856;BME280;17570;0.000;0.000;2022-08-19T05:04:21;96695.28;;;29.57;38.77
30856;BME280;17570;0.000;0.000;2022-08-19T05:06:51;96694.53;;;29.61;38.77
30856;BME280;17570;0.000;0.000;2022-08-19T05:09:20;96693.78;;;29.66;38.93
30856;BME280;17570;0.000;0.000;2022-08-19T05:11:48;96697.55;;;29.70;39.03
30856;BME280;17570;0.000;0.000;2022-08-19T05:14:17;96701.39;;;29.79;38.91
30856;BME280;17570;0.000;0.000;2022-08-19T05:16:46;96691.27;;;29.81;38.98
30856;BME280;17570;0.000;0.000;2022-08-19T05:19:14;96694.00;;;29.86;38.93
30856;BME280;17570;0.000;0.000;2022-08-19T05:22:06;96699.14;;;29.93;39.24
30856;BME280;17570;0.000;0.000;2022-08-19T05:24:49;96700.64;;;29.84;39.42
30856;BME280;17570;0.000;0.000;2022-08-19T05:27:18;96692.87;;;29.82;39.34
30856;BME280;17570;0.000;0.000;2022-08-19T05:29:45;96685.75;;;29.93;39.22
30856;BME280;17570;0.000;0.000;2022-08-19T05:32:13;96686.69;;;30.04;39.20
30856;BME280;17570;0.000;0.000;2022-08-19T05:34:41;96682.73;;;30.11;39.12
30856;BME280;17570;0.000;0.000;2022-08-19T05:37:08;96694.17;;;30.29;39.71
30856;BME280;17570;0.000;0.000;2022-08-19T05:39:37;96694.56;;;30.42;40.09
30856;BME280;17570;0.000;0.000;2022-08-19T05:44:37;96688.78;;;30.56;39.22
30856;BME280;17570;0.000;0.000;2022-08-19T05:47:06;96689.62;;;30.61;39.14
30856;BME280;17570;0.000;0.000;2022-08-19T05:49:35;96685.64;;;30.64;38.61
30856;BME280;17570;0.000;0.000;2022-08-19T05:52:04;96678.44;;;30.69;38.58
30856;BME280;17570;0.000;0.000;2022-08-19T05:54:32;96677.70;;;30.74;38.26
30856;BME280;17570;0.000;0.000;2022-08-19T05:57:00;96683.89;;;30.80;38.24
30856;BME280;17570;0.000;0.000;2022-08-19T05:59:29;96685.80;;;30.84;37.68
30856;BME280;17570;0.000;0.000;2022-08-19T06:01:57;96694.38;;;30.86;37.63
30856;BME280;17570;0.000;0.000;2022-08-19T06:04:29;96692.56;;;30.92;39.53
30856;BME280;17570;0.000;0.000;2022-08-19T06:06:56;96690.27;;;31.11;39.75
30856;BME280;17570;0.000;0.000;2022-08-19T06:09:24;96690.02;;;31.17;39.41
30856;BME280;17570;0.000;0.000;2022-08-19T06:11:53;96695.41;;;31.22;38.89
30856;BME280;17570;0.000;0.000;2022-08-19T06:14:25;96689.29;;;31.27;38.52
30856;BME280;17570;0.000;0.000;2022-08-19T06:16:57;96687.97;;;31.30;38.50
30856;BME280;17570;0.000;0.000;2022-08-19T06:19:46;96693.37;;;31.40;38.32
30856;BME280;17570;0.000;0.000;2022-08-19T06:22:13;96693.02;;;31.26;38.65
30856;BME280;17570;0.000;0.000;2022-08-19T06:24:41;96693.06;;;31.31;38.14
30856;BME280;17570;0.000;0.000;2022-08-19T06:27:09;96702.74;;;31.37;38.08
30856;BME280;17570;0.000;0.000;2022-08-19T06:29:36;96686.41;;;31.39;38.04
30856;BME280;17570;0.000;0.000;2022-08-19T06:32:05;96691.77;;;31.39;37.90
30856;BME280;17570;0.000;0.000;2022-08-19T06:34:32;96690.72;;;31.45;37.70
30856;BME280;17570;0.000;0.000;2022-08-19T06:37:01;96698.25;;;31.48;37.42
30856;BME280;17570;0.000;0.000;2022-08-19T06:39:31;96691.02;;;31.54;36.98
30856;BME280;17570;0.000;0.000;2022-08-19T06:41:59;96687.55;;;31.58;36.88
30856;BME280;17570;0.000;0.000;2022-08-19T06:44:29;96691.88;;;31.69;37.17
30856;BME280;17570;0.000;0.000;2022-08-19T06:46:59;96682.80;;;31.81;36.83
30856;BME280;17570;0.000;0.000;2022-08-19T06:49:28;96690.09;;;31.85;36.77
30856;BME280;17570;0.000;0.000;2022-08-19T06:51:57;96685.02;;;31.99;36.16
30856;BME280;17570;0.000;0.000;2022-08-19T06:54:25;96679.11;;;32.07;35.53
30856;BME280;17570;0.000;0.000;2022-08-19T06:56:53;96675.90;;;32.10;34.90
30856;BME280;17570;0.000;0.000;2022-08-19T06:59:23;96680.75;;;32.13;35.23
30856;BME280;17570;0.000;0.000;2022-08-19T07:01:53;96681.28;;;32.20;35.48
30856;BME280;17570;0.000;0.000;2022-08-19T07:04:23;96678.59;;;32.31;35.92
30856;BME280;17570;0.000;0.000;2022-08-19T07:06:55;96680.78;;;32.44;35.17
30856;BME280;17570;0.000;0.000;2022-08-19T07:09:20;96681.59;;;32.49;34.57
30856;BME280;17570;0.000;0.000;2022-08-19T07:11:48;96674.08;;;32.52;34.12
30856;BME280;17570;0.000;0.000;2022-08-19T07:14:17;96682.66;;;32.79;35.23
30856;BME280;17570;0.000;0.000;2022-08-19T07:16:46;96683.98;;;33.07;35.02
30856;BME280;17570;0.000;0.000;2022-08-19T07:19:14;96676.97;;;33.16;35.01
30856;BME280;17570;0.000;0.000;2022-08-19T07:21:42;96680.19;;;33.13;34.68
30856;BME280;17570;0.000;0.000;2022-08-19T07:27:49;96673.25;;;32.97;34.43
30856;BME280;17570;0.000;0.000;2022-08-19T07:30:17;96679.16;;;32.79;34.56
30856;BME280;17570;0.000;0.000;2022-08-19T07:32:46;96677.23;;;33.10;34.24
30856;BME280;17570;0.000;0.000;2022-08-19T07:35:14;96675.28;;;33.36;32.68
30856;BME280;17570;0.000;0.000;2022-08-19T07:37:42;96671.46;;;33.52;32.81
30856;BME280;17570;0.000;0.000;2022-08-19T07:40:10;96669.52;;;33.68;32.01
30856;BME280;17570;0.000;0.000;2022-08-19T07:42:38;96672.95;;;33.79;31.57
30856;BME280;17570;0.000;0.000;2022-08-19T07:45:06;96660.52;;;33.88;30.64
30856;BME280;17570;0.000;0.000;2022-08-19T07:47:34;96655.67;;;33.95;30.50
30856;BME280;17570;0.000;0.000;2022-08-19T07:50:03;96664.73;;;34.04;30.63
30856;BME280;17570;0.000;0.000;2022-08-19T07:52:34;96666.05;;;34.12;30.18
30856;BME280;17570;0.000;0.000;2022-08-19T07:55:05;96657.92;;;34.17;29.70
30856;BME280;17570;0.000;0.000;2022-08-19T07:57:33;96659.77;;;34.21;29.96
30856;BME280;17570;0.000;0.000;2022-08-19T08:00:00;96665.66;;;34.29;29.91
30856;BME280;17570;0.000;0.000;2022-08-19T08:02:30;96658.34;;;34.34;28.81
30856;BME280;17570;0.000;0.000;2022-08-19T08:04:57;96653.70;;;34.40;29.26
30856;BME280;17570;0.000;0.000;2022-08-19T08:07:43;96656.92;;;34.47;28.81
30856;BME280;17570;0.000;0.000;2022-08-19T08:10:28;96660.70;;;34.41;28.76
30856;BME280;17570;0.000;0.000;2022-08-19T08:12:56;96644.81;;;34.39;28.37
30856;BME280;17570;0.000;0.000;2022-08-19T08:15:24;96649.84;;;34.56;30.19
30856;BME280;17570;0.000;0.000;2022-08-19T08:17:51;96657.53;;;34.68;28.42
30856;BME280;17570;0.000;0.000;2022-08-19T08:20:19;96652.84;;;34.78;27.45
30856;BME280;17570;0.000;0.000;2022-08-19T08:22:46;96656.52;;;34.88;29.00
30856;BME280;17570;0.000;0.000;2022-08-19T08:25:33;96654.59;;;34.93;27.21
30856;BME280;17570;0.000;0.000;2022-08-19T08:28:02;96656.25;;;34.89;27.05
30856;BME280;17570;0.000;0.000;2022-08-19T08:30:30;96652.91;;;35.03;26.46
30856;BME280;17570;0.000;0.000;2022-08-19T08:32:59;96651.40;;;35.15;26.31
30856;BME280;17570;0.000;0.000;2022-08-19T08:35:27;96649.97;;;35.23;26.87
30856;BME280;17570;0.000;0.000;2022-08-19T08:37:55;96650.71;;;35.28;26.01
30856;BME280;17570;0.000;0.000;2022-08-19T08:40:26;96649.28;;;35.36;26.52
30856;BME280;17570;0.000;0.000;2022-08-19T08:42:57;96648.91;;;35.43;26.60
30856;BME280;17570;0.000;0.000;2022-08-19T08:45:26;96649.67;;;35.48;27.66
30856;BME280;17570;0.000;0.000;2022-08-19T08:47:54;96649.17;;;35.46;27.43
30856;BME280;17570;0.000;0.000;2022-08-19T08:50:28;96650.14;;;35.56;28.27
30856;BME280;17570;0.000;0.000;2022-08-19T08:52:56;96642.20;;;35.64;27.24
30856;BME280;17570;0.000;0.000;2022-08-19T08:55:25;96653.42;;;35.71;26.70
30856;BME280;17570;0.000;0.000;2022-08-19T08:57:54;96652.21;;;35.83;26.17
30856;BME280;17570;0.000;0.000;2022-08-19T09:00:30;96645.33;;;35.90;26.31
30856;BME280;17570;0.000;0.000;2022-08-19T09:02:57;96643.91;;;35.98;26.21
30856;BME280;17570;0.000;0.000;2022-08-19T09:05:32;96633.59;;;36.00;26.94
30856;BME280;17570;0.000;0.000;2022-08-19T09:13:38;96630.80;;;34.71;27.37
30856;BME280;17570;0.000;0.000;2022-08-19T09:16:09;96624.74;;;34.85;27.47
30856;BME280;17570;0.000;0.000;2022-08-19T09:18:40;96624.97;;;35.60;27.53
30856;BME280;17570;0.000;0.000;2022-08-19T09:21:08;96630.45;;;36.12;26.91
30856;BME280;17570;0.000;0.000;2022-08-19T09:23:36;96619.43;;;36.41;26.08
30856;BME280;17570;0.000;0.000;2022-08-19T09:26:13;96617.00;;;36.58;24.90
30856;BME280;17570;0.000;0.000;2022-08-19T09:28:38;96627.33;;;36.70;26.01
30856;BME280;17570;0.000;0.000;2022-08-19T09:31:07;96626.43;;;36.74;27.20
30856;BME280;17570;0.000;0.000;2022-08-19T09:33:34;96620.06;;;36.84;25.85
30856;BME280;17570;0.000;0.000;2022-08-19T09:36:08;96615.34;;;36.90;25.92
30856;BME280;17570;0.000;0.000;2022-08-19T09:38:33;96617.87;;;37.00;25.71
30856;BME280;17570;0.000;0.000;2022-08-19T09:41:04;96620.97;;;37.07;26.10
30856;BME280;17570;0.000;0.000;2022-08-19T09:43:32;96624.58;;;37.16;25.36
30856;BME280;17570;0.000;0.000;2022-08-19T09:46:05;96616.87;;;37.23;25.21
30856;BME280;17570;0.000;0.000;2022-08-19T09:48:36;96619.05;;;37.35;25.31
30856;BME280;17570;0.000;0.000;2022-08-19T09:51:04;96616.98;;;37.46;24.78
30856;BME280;17570;0.000;0.000;2022-08-19T09:53:34;96611.02;;;37.58;25.05
30856;BME280;17570;0.000;0.000;2022-08-19T09:56:02;96609.20;;;37.67;25.23
30856;BME280;17570;0.000;0.000;2022-08-19T09:58:32;96610.88;;;37.76;25.14
30856;BME280;17570;0.000;0.000;2022-08-19T10:01:01;96613.41;;;37.87;25.03
30856;BME280;17570;0.000;0.000;2022-08-19T10:03:29;96610.73;;;37.95;25.20
30856;BME280;17570;0.000;0.000;2022-08-19T10:05:57;96612.11;;;38.07;24.96
30856;BME280;17570;0.000;0.000;2022-08-19T10:08:27;96604.33;;;38.14;24.98
30856;BME280;17570;0.000;0.000;2022-08-19T10:10:55;96604.40;;;38.22;25.24
30856;BME280;17570;0.000;0.000;2022-08-19T10:13:24;96604.17;;;38.33;24.97
30856;BME280;17570;0.000;0.000;2022-08-19T10:15:53;96596.09;;;38.41;24.70
30856;BME280;17570;0.000;0.000;2022-08-19T10:18:22;96592.63;;;38.49;24.92
30856;BME280;17570;0.000;0.000;2022-08-19T10:21:02;96588.53;;;38.61;25.19
30856;BME280;17570;0.000;0.000;2022-08-19T10:23:25;96596.42;;;38.71;24.49
30856;BME280;17570;0.000;0.000;2022-08-19T10:25:54;96596.46;;;38.79;24.33
30856;BME280;17570;0.000;0.000;2022-08-19T10:28:21;96596.86;;;38.95;23.94
30856;BME280;17570;0.000;0.000;2022-08-19T10:30:50;96598.34;;;39.10;23.86
30856;BME280;17570;0.000;0.000;2022-08-19T10:33:18;96602.55;;;39.25;22.75
30856;BME280;17570;0.000;0.000;2022-08-19T10:35:46;96594.78;;;39.41;23.01
30856;BME280;17570;0.000;0.000;2022-08-19T10:38:13;96585.36;;;39.56;24.13
30856;BME280;17570;0.000;0.000;2022-08-19T10:40:43;96589.55;;;39.70;23.47
30856;BME280;17570;0.000;0.000;2022-08-19T10:43:10;96589.86;;;39.86;23.88
30856;BME280;17570;0.000;0.000;2022-08-19T10:45:38;96597.68;;;40.05;23.43
30856;BME280;17570;0.000;0.000;2022-08-19T10:48:05;96588.91;;;40.25;23.52
30856;BME280;17570;0.000;0.000;2022-08-19T10:50:33;96589.67;;;40.43;23.18
30856;BME280;17570;0.000;0.000;2022-08-19T10:53:18;96579.23;;;40.63;22.84
30856;BME280;17570;0.000;0.000;2022-08-19T10:55:49;96584.64;;;40.71;23.10
30856;BME280;17570;0.000;0.000;2022-08-19T10:58:34;96581.18;;;40.92;22.74
30856;BME280;17570;0.000;0.000;2022-08-19T11:01:02;96576.67;;;41.04;22.58
30856;BME280;17570;0.000;0.000;2022-08-19T11:03:30;96571.84;;;41.31;22.18
30856;BME280;17570;0.000;0.000;2022-08-19T11:06:01;96572.36;;;41.54;21.97
30856;BME280;17570;0.000;0.000;2022-08-19T11:08:29;96561.77;;;41.73;21.75
30856;BME280;17570;0.000;0.000;2022-08-19T11:10:59;96560.53;;;41.92;21.50
30856;BME280;17570;0.000;0.000;2022-08-19T11:13:27;96556.19;;;42.12;21.34
30856;BME280;17570;0.000;0.000;2022-08-19T11:16:07;96566.61;;;42.31;21.35
30856;BME280;17570;0.000;0.000;2022-08-19T11:18:30;96562.08;;;42.47;20.79
30856;BME280;17570;0.000;0.000;2022-08-19T11:21:08;96558.23;;;42.60;20.92
30856;BME280;17570;0.000;0.000;2022-08-19T11:23:36;96557.36;;;42.80;20.56
30856;BME280;17570;0.000;0.000;2022-08-19T11:26:04;96558.52;;;42.92;20.89
30856;BME280;17570;0.000;0.000;2022-08-19T11:28:32;96559.20;;;43.13;20.64
30856;BME280;17570;0.000;0.000;2022-08-19T11:31:00;96566.00;;;43.32;20.22
30856;BME280;17570;0.000;0.000;2022-08-19T11:33:32;96553.26;;;43.48;19.85
30856;BME280;17570;0.000;0.000;2022-08-19T11:36:02;96552.52;;;43.63;20.06
30856;BME280;17570;0.000;0.000;2022-08-19T11:38:29;96548.06;;;43.71;18.61
30856;BME280;17570;0.000;0.000;2022-08-19T11:40:58;96559.54;;;43.89;20.81
30856;BME280;17570;0.000;0.000;2022-08-19T11:43:27;96555.78;;;44.09;21.15
30856;BME280;17570;0.000;0.000;2022-08-19T11:45:55;96552.04;;;44.29;20.84
30856;BME280;17570;0.000;0.000;2022-08-19T11:48:23;96547.81;;;44.48;20.15
30856;BME280;17570;0.000;0.000;2022-08-19T11:50:51;96533.91;;;44.69;19.09
30856;BME280;17570;0.000;0.000;2022-08-19T11:53:21;96544.74;;;44.97;18.11
30856;BME280;17570;0.000;0.000;2022-08-19T11:55:49;96542.67;;;45.25;17.68
30856;BME280;17570;0.000;0.000;2022-08-19T11:58:18;96542.35;;;45.46;17.82
30856;BME280;17570;0.000;0.000;2022-08-19T12:00:51;96539.27;;;45.67;16.75
30856;BME280;17570;0.000;0.000;2022-08-19T12:03:15;96527.59;;;45.90;18.00
30856;BME280;17570;0.000;0.000;2022-08-19T12:05:42;96537.45;;;46.14;18.13
30856;BME280;17570;0.000;0.000;2022-08-19T12:08:10;96522.19;;;46.36;17.73
30856;BME280;17570;0.000;0.000;2022-08-19T12:10:39;96524.14;;;46.58;17.37
30856;BME280;17570;0.000;0.000;2022-08-19T12:13:09;96531.56;;;46.80;17.24
30856;BME280;17570;0.000;0.000;2022-08-19T12:15:37;96524.03;;;47.00;17.05
30856;BME280;17570;0.000;0.000;2022-08-19T12:18:07;96523.17;;;47.23;16.58
30856;BME280;17570;0.000;0.000;2022-08-19T12:20:36;96523.84;;;47.43;16.24
30856;BME280;17570;0.000;0.000;2022-08-19T12:23:05;96519.98;;;47.47;16.34
30856;BME280;17570;0.000;0.000;2022-08-19T12:25:32;96519.88;;;47.67;16.71
30856;BME280;17570;0.000;0.000;2022-08-19T12:28:00;96503.22;;;47.90;16.24
30856;BME280;17570;0.000;0.000;2022-08-19T12:30:28;96505.80;;;48.09;16.44
30856;BME280;17570;0.000;0.000;2022-08-19T12:32:56;96506.38;;;48.29;16.41
30856;BME280;17570;0.000;0.000;2022-08-19T12:35:23;96503.09;;;48.57;16.14
30856;BME280;17570;0.000;0.000;2022-08-19T12:37:51;96495.81;;;48.83;15.55
30856;BME280;17570;0.000;0.000;2022-08-19T12:40:18;96489.28;;;49.09;16.04
30856;BME280;17570;0.000;0.000;2022-08-19T12:42:46;96494.55;;;49.32;15.40
30856;BME280;17570;0.000;0.000;2022-08-19T12:45:15;96494.68;;;49.53;15.20
30856;BME280;17570;0.000;0.000;2022-08-19T12:47:42;96499.45;;;49.70;14.69
30856;BME280;17570;0.000;0.000;2022-08-19T12:50:10;96495.20;;;49.91;14.68
30856;BME280;17570;0.000;0.000;2022-08-19T12:52:38;96491.29;;;50.10;14.70
30856;BME280;17570;0.000;0.000;2022-08-19T12:55:07;96484.22;;;50.26;14.47
30856;BME280;17570;0.000;0.000;2022-08-19T12:57:35;96493.70;;;50.43;14.45
30856;BME280;17570;0.000;0.000;2022-08-19T13:00:07;96486.86;;;49.76;10.29
30856;BME280;17570;0.000;0.000;2022-08-19T13:02:40;96490.84;;;49.83;12.79
30856;BME280;17570;0.000;0.000;2022-08-19T13:05:08;96484.22;;;50.41;13.23
30856;BME280;17570;0.000;0.000;2022-08-19T13:07:38;96483.03;;;50.77;13.23
30856;BME280;17570;0.000;0.000;2022-08-19T13:10:06;96491.69;;;51.08;12.99
30856;BME280;17570;0.000;0.000;2022-08-19T13:12:34;96480.56;;;51.33;13.20
30856;BME280;17570;0.000;0.000;2022-08-19T13:15:02;96480.50;;;51.55;12.67
30856;BME280;17570;0.000;0.000;2022-08-19T13:17:29;96485.13;;;51.75;12.59
30856;BME280;17570;0.000;0.000;2022-08-19T13:19:57;96486.60;;;51.98;12.74
30856;BME280;17570;0.000;0.000;2022-08-19T13:22:25;96488.83;;;52.17;12.78
30856;BME280;17570;0.000;0.000;2022-08-19T13:24:53;96487.16;;;52.34;12.38
30856;BME280;17570;0.000;0.000;2022-08-19T13:27:20;96490.95;;;52.51;12.55
30856;BME280;17570;0.000;0.000;2022-08-19T13:29:48;96490.05;;;52.68;12.06
30856;BME280;17570;0.000;0.000;2022-08-19T13:32:34;96490.69;;;52.87;11.56
30856;BME280;17570;0.000;0.000;2022-08-19T13:35:19;96486.64;;;52.95;11.34
30856;BME280;17570;0.000;0.000;2022-08-19T13:37:47;96486.52;;;53.06;11.82
30856;BME280;17570;0.000;0.000;2022-08-19T13:40:16;96483.47;;;53.31;11.24
30856;BME280;17570;0.000;0.000;2022-08-19T13:42:45;96475.30;;;53.50;11.45
30856;BME280;17570;0.000;0.000;2022-08-19T13:45:14;96473.50;;;53.67;11.13
30856;BME280;17570;0.000;0.000;2022-08-19T13:47:47;96480.45;;;53.83;10.59
30856;BME280;17570;0.000;0.000;2022-08-19T13:50:15;96473.11;;;53.96;10.67
30856;BME280;17570;0.000;0.000;2022-08-19T13:52:43;96469.41;;;54.06;10.61
30856;BME280;17570;0.000;0.000;2022-08-19T13:55:11;96473.63;;;54.14;10.55
30856;BME280;17570;0.000;0.000;2022-08-19T13:57:39;96473.20;;;54.19;10.64
30856;BME280;17570;0.000;0.000;2022-08-19T14:00:13;96477.47;;;54.24;10.75
30856;BME280;17570;0.000;0.000;2022-08-19T14:02:37;96477.55;;;54.20;11.68